Schurz, Nevada
Current Conditions -  °F | °C
As of 3:56 PM on Sunday 21 Dec 2014 (Local Time) from KNFL Reporting Station
Overcast Overcast  
Wind Chill: 58°   Ceiling: 15000
Heat Index: 58°   Visibility: 10mi
Dew Point: 42°   Wind: 15mph
Humidity: 56%   Direction: 280°W
Pressure: 30.18"   Gusts: NA
Location:  38.95°N, 118.81°W
Report Text: KNFL 212356Z 28013KT 10SM SCT065 BKN150 OVC240 14/06 A3018 RMK AO2 SLP182 T01440056 10167 20117 53006
Loading
Personal Weather Stations






























Interactive Weather Map New forecast layout! Learn more

10-Day Weather Forecast

Advertisements
Track Severe Weather on mobile